sensor_id;sensor_type;location;lat;lon;timestamp;P1;durP1;ratioP1;P2;durP2;ratioP2
10727;SDS011;5415;59.322;18.246;2023-02-02T00:02:14;1.40;;;1.13;;
10727;SDS011;5415;59.322;18.246;2023-02-02T00:04:43;0.87;;;0.70;;
10727;SDS011;5415;59.322;18.246;2023-02-02T00:07:11;0.87;;;0.80;;
10727;SDS011;5415;59.322;18.246;2023-02-02T00:09:39;2.07;;;0.73;;
10727;SDS011;5415;59.322;18.246;2023-02-02T00:12:08;2.53;;;0.80;;
10727;SDS011;5415;59.322;18.246;2023-02-02T00:14:36;1.80;;;0.90;;
10727;SDS011;5415;59.322;18.246;2023-02-02T00:17:04;1.10;;;0.70;;
10727;SDS011;5415;59.322;18.246;2023-02-02T00:19:35;1.03;;;0.80;;
10727;SDS011;5415;59.322;18.246;2023-02-02T00:22:08;0.83;;;0.70;;
10727;SDS011;5415;59.322;18.246;2023-02-02T00:24:35;2.60;;;1.10;;
10727;SDS011;5415;59.322;18.246;2023-02-02T00:27:02;1.67;;;0.93;;
10727;SDS011;5415;59.322;18.246;2023-02-02T00:29:30;0.80;;;0.80;;
10727;SDS011;5415;59.322;18.246;2023-02-02T00:31:58;1.07;;;0.93;;
10727;SDS011;5415;59.322;18.246;2023-02-02T00:34:25;2.73;;;1.10;;
10727;SDS011;5415;59.322;18.246;2023-02-02T00:36:53;2.00;;;0.90;;
10727;SDS011;5415;59.322;18.246;2023-02-02T00:39:23;3.13;;;0.90;;
10727;SDS011;5415;59.322;18.246;2023-02-02T00:41:51;2.13;;;0.87;;
10727;SDS011;5415;59.322;18.246;2023-02-02T00:44:20;0.70;;;0.70;;
10727;SDS011;5415;59.322;18.246;2023-02-02T00:47:05;2.17;;;0.80;;
10727;SDS011;5415;59.322;18.246;2023-02-02T00:49:33;1.63;;;1.00;;
10727;SDS011;5415;59.322;18.246;2023-02-02T00:52:00;1.23;;;0.83;;
10727;SDS011;5415;59.322;18.246;2023-02-02T00:54:30;3.43;;;1.00;;
10727;SDS011;5415;59.322;18.246;2023-02-02T00:56:57;1.17;;;1.00;;
10727;SDS011;5415;59.322;18.246;2023-02-02T00:59:25;0.80;;;0.80;;
10727;SDS011;5415;59.322;18.246;2023-02-02T01:01:52;2.40;;;1.10;;
10727;SDS011;5415;59.322;18.246;2023-02-02T01:04:20;1.53;;;0.80;;
10727;SDS011;5415;59.322;18.246;2023-02-02T01:06:49;0.70;;;0.70;;
10727;SDS011;5415;59.322;18.246;2023-02-02T01:09:16;2.10;;;0.80;;
10727;SDS011;5415;59.322;18.246;2023-02-02T01:11:46;2.83;;;0.80;;
10727;SDS011;5415;59.322;18.246;2023-02-02T01:14:13;0.80;;;0.70;;
10727;SDS011;5415;59.322;18.246;2023-02-02T01:16:40;0.77;;;0.60;;
10727;SDS011;5415;59.322;18.246;2023-02-02T01:19:08;2.37;;;0.70;;
10727;SDS011;5415;59.322;18.246;2023-02-02T01:21:36;0.90;;;0.70;;
10727;SDS011;5415;59.322;18.246;2023-02-02T01:24:03;1.20;;;0.80;;
10727;SDS011;5415;59.322;18.246;2023-02-02T01:26:30;0.60;;;0.60;;
10727;SDS011;5415;59.322;18.246;2023-02-02T01:28:59;1.60;;;0.70;;
10727;SDS011;5415;59.322;18.246;2023-02-02T01:31:27;0.70;;;0.70;;
10727;SDS011;5415;59.322;18.246;2023-02-02T01:33:54;0.60;;;0.60;;
10727;SDS011;5415;59.322;18.246;2023-02-02T01:36:22;1.03;;;0.70;;
10727;SDS011;5415;59.322;18.246;2023-02-02T01:38:50;1.40;;;0.80;;
10727;SDS011;5415;59.322;18.246;2023-02-02T01:41:21;0.93;;;0.70;;
10727;SDS011;5415;59.322;18.246;2023-02-02T01:43:52;1.33;;;0.60;;
10727;SDS011;5415;59.322;18.246;2023-02-02T01:46:23;0.70;;;0.70;;
10727;SDS011;5415;59.322;18.246;2023-02-02T01:48:52;0.60;;;0.60;;
10727;SDS011;5415;59.322;18.246;2023-02-02T01:51:20;0.83;;;0.70;;
10727;SDS011;5415;59.322;18.246;2023-02-02T01:53:49;2.87;;;0.80;;
10727;SDS011;5415;59.322;18.246;2023-02-02T01:56:18;1.20;;;0.73;;
10727;SDS011;5415;59.322;18.246;2023-02-02T01:58:46;1.37;;;0.90;;
10727;SDS011;5415;59.322;18.246;2023-02-02T02:01:14;0.60;;;0.60;;
10727;SDS011;5415;59.322;18.246;2023-02-02T02:03:43;0.93;;;0.87;;
10727;SDS011;5415;59.322;18.246;2023-02-02T02:06:11;0.80;;;0.80;;
10727;SDS011;5415;59.322;18.246;2023-02-02T02:08:40;0.50;;;0.50;;
10727;SDS011;5415;59.322;18.246;2023-02-02T02:11:11;0.67;;;0.40;;
10727;SDS011;5415;59.322;18.246;2023-02-02T02:13:40;1.50;;;0.80;;
10727;SDS011;5415;59.322;18.246;2023-02-02T02:16:27;0.70;;;0.70;;
10727;SDS011;5415;59.322;18.246;2023-02-02T02:19:03;0.67;;;0.60;;
10727;SDS011;5415;59.322;18.246;2023-02-02T02:21:45;2.00;;;0.70;;
10727;SDS011;5415;59.322;18.246;2023-02-02T02:33:12;0.60;;;0.57;;
10727;SDS011;5415;59.322;18.246;2023-02-02T02:35:44;0.97;;;0.60;;
10727;SDS011;5415;59.322;18.246;2023-02-02T02:38:15;1.20;;;1.00;;
10727;SDS011;5415;59.322;18.246;2023-02-02T02:40:48;1.10;;;0.70;;
10727;SDS011;5415;59.322;18.246;2023-02-02T02:43:18;1.60;;;0.63;;
10727;SDS011;5415;59.322;18.246;2023-02-02T02:45:46;1.47;;;0.60;;
10727;SDS011;5415;59.322;18.246;2023-02-02T02:48:15;0.68;;;0.60;;
10727;SDS011;5415;59.322;18.246;2023-02-02T02:50:43;1.50;;;0.80;;
10727;SDS011;5415;59.322;18.246;2023-02-02T02:53:12;0.63;;;0.60;;
10727;SDS011;5415;59.322;18.246;2023-02-02T02:55:44;0.93;;;0.60;;
10727;SDS011;5415;59.322;18.246;2023-02-02T02:58:13;0.70;;;0.60;;
10727;SDS011;5415;59.322;18.246;2023-02-02T03:03:35;0.80;;;0.53;;
10727;SDS011;5415;59.322;18.246;2023-02-02T03:06:07;0.53;;;0.53;;
10727;SDS011;5415;59.322;18.246;2023-02-02T03:08:38;0.90;;;0.70;;
10727;SDS011;5415;59.322;18.246;2023-02-02T03:11:07;1.43;;;0.50;;
10727;SDS011;5415;59.322;18.246;2023-02-02T03:13:35;1.23;;;0.57;;
10727;SDS011;5415;59.322;18.246;2023-02-02T03:16:02;0.83;;;0.47;;
10727;SDS011;5415;59.322;18.246;2023-02-02T03:18:30;0.60;;;0.60;;
10727;SDS011;5415;59.322;18.246;2023-02-02T03:21:00;0.60;;;0.60;;
10727;SDS011;5415;59.322;18.246;2023-02-02T03:23:29;0.40;;;0.40;;
10727;SDS011;5415;59.322;18.246;2023-02-02T03:25:56;1.60;;;0.70;;
10727;SDS011;5415;59.322;18.246;2023-02-02T03:28:24;0.77;;;0.70;;
10727;SDS011;5415;59.322;18.246;2023-02-02T03:30:52;0.67;;;0.60;;
10727;SDS011;5415;59.322;18.246;2023-02-02T03:33:21;0.73;;;0.57;;
10727;SDS011;5415;59.322;18.246;2023-02-02T03:35:48;0.50;;;0.50;;
10727;SDS011;5415;59.322;18.246;2023-02-02T03:38:18;1.70;;;0.50;;
10727;SDS011;5415;59.322;18.246;2023-02-02T03:40:45;1.00;;;0.67;;
10727;SDS011;5415;59.322;18.246;2023-02-02T03:43:17;0.53;;;0.50;;
10727;SDS011;5415;59.322;18.246;2023-02-02T03:45:45;1.10;;;0.60;;
10727;SDS011;5415;59.322;18.246;2023-02-02T03:48:13;0.80;;;0.53;;
10727;SDS011;5415;59.322;18.246;2023-02-02T03:50:40;0.40;;;0.40;;
10727;SDS011;5415;59.322;18.246;2023-02-02T03:53:10;0.50;;;0.50;;
10727;SDS011;5415;59.322;18.246;2023-02-02T03:55:39;0.73;;;0.50;;
10727;SDS011;5415;59.322;18.246;2023-02-02T03:58:06;1.30;;;0.70;;
10727;SDS011;5415;59.322;18.246;2023-02-02T04:00:34;0.30;;;0.30;;
10727;SDS011;5415;59.322;18.246;2023-02-02T04:03:01;0.60;;;0.50;;
10727;SDS011;5415;59.322;18.246;2023-02-02T04:05:30;0.60;;;0.60;;
10727;SDS011;5415;59.322;18.246;2023-02-02T04:07:58;0.40;;;0.40;;
10727;SDS011;5415;59.322;18.246;2023-02-02T04:10:25;0.40;;;0.40;;
10727;SDS011;5415;59.322;18.246;2023-02-02T04:12:54;0.53;;;0.47;;
10727;SDS011;5415;59.322;18.246;2023-02-02T04:15:22;1.13;;;0.60;;
10727;SDS011;5415;59.322;18.246;2023-02-02T04:17:49;1.83;;;0.60;;
10727;SDS011;5415;59.322;18.246;2023-02-02T04:20:18;2.27;;;0.80;;
10727;SDS011;5415;59.322;18.246;2023-02-02T04:22:46;1.50;;;0.80;;
10727;SDS011;5415;59.322;18.246;2023-02-02T04:25:13;0.60;;;0.60;;
10727;SDS011;5415;59.322;18.246;2023-02-02T04:27:41;0.73;;;0.70;;
10727;SDS011;5415;59.322;18.246;2023-02-02T04:30:13;0.73;;;0.70;;
10727;SDS011;5415;59.322;18.246;2023-02-02T04:32:40;0.83;;;0.73;;
10727;SDS011;5415;59.322;18.246;2023-02-02T04:35:08;1.17;;;1.00;;
10727;SDS011;5415;59.322;18.246;2023-02-02T04:37:35;1.10;;;1.03;;
10727;SDS011;5415;59.322;18.246;2023-02-02T04:40:03;1.87;;;1.20;;
10727;SDS011;5415;59.322;18.246;2023-02-02T04:42:33;1.40;;;1.30;;
10727;SDS011;5415;59.322;18.246;2023-02-02T04:45:00;1.43;;;1.30;;
10727;SDS011;5415;59.322;18.246;2023-02-02T04:47:30;3.30;;;1.27;;
10727;SDS011;5415;59.322;18.246;2023-02-02T04:49:57;3.63;;;1.60;;
10727;SDS011;5415;59.322;18.246;2023-02-02T04:52:25;1.33;;;1.23;;
10727;SDS011;5415;59.322;18.246;2023-02-02T04:54:52;2.40;;;1.50;;
10727;SDS011;5415;59.322;18.246;2023-02-02T04:57:20;2.60;;;1.57;;
10727;SDS011;5415;59.322;18.246;2023-02-02T04:59:47;5.50;;;1.73;;
10727;SDS011;5415;59.322;18.246;2023-02-02T05:02:15;2.20;;;1.60;;
10727;SDS011;5415;59.322;18.246;2023-02-02T05:04:46;4.23;;;1.80;;
10727;SDS011;5415;59.322;18.246;2023-02-02T05:07:14;1.67;;;1.57;;
10727;SDS011;5415;59.322;18.246;2023-02-02T05:09:41;2.20;;;1.70;;
10727;SDS011;5415;59.322;18.246;2023-02-02T05:12:09;3.37;;;1.83;;
10727;SDS011;5415;59.322;18.246;2023-02-02T05:14:37;1.50;;;1.40;;
10727;SDS011;5415;59.322;18.246;2023-02-02T05:17:05;2.00;;;1.70;;
10727;SDS011;5415;59.322;18.246;2023-02-02T05:19:35;2.80;;;1.80;;
10727;SDS011;5415;59.322;18.246;2023-02-02T05:22:04;3.27;;;1.77;;
10727;SDS011;5415;59.322;18.246;2023-02-02T05:24:31;2.40;;;1.63;;
10727;SDS011;5415;59.322;18.246;2023-02-02T05:26:59;2.27;;;1.80;;
10727;SDS011;5415;59.322;18.246;2023-02-02T05:29:28;3.47;;;1.60;;
10727;SDS011;5415;59.322;18.246;2023-02-02T05:31:56;3.93;;;1.77;;
10727;SDS011;5415;59.322;18.246;2023-02-02T05:34:23;2.37;;;1.80;;
10727;SDS011;5415;59.322;18.246;2023-02-02T05:36:50;3.87;;;2.00;;
10727;SDS011;5415;59.322;18.246;2023-02-02T05:39:20;2.10;;;1.53;;
10727;SDS011;5415;59.322;18.246;2023-02-02T05:41:48;2.17;;;1.47;;
10727;SDS011;5415;59.322;18.246;2023-02-02T05:44:15;2.23;;;1.77;;
10727;SDS011;5415;59.322;18.246;2023-02-02T05:46:43;2.07;;;1.60;;
10727;SDS011;5415;59.322;18.246;2023-02-02T05:49:11;2.23;;;1.77;;
10727;SDS011;5415;59.322;18.246;2023-02-02T05:51:39;2.90;;;1.97;;
10727;SDS011;5415;59.322;18.246;2023-02-02T05:54:08;1.70;;;1.60;;
10727;SDS011;5415;59.322;18.246;2023-02-02T05:56:38;2.40;;;1.60;;
10727;SDS011;5415;59.322;18.246;2023-02-02T05:59:05;5.10;;;1.70;;
10727;SDS011;5415;59.322;18.246;2023-02-02T06:01:33;1.90;;;1.60;;
10727;SDS011;5415;59.322;18.246;2023-02-02T06:04:00;2.30;;;1.80;;
10727;SDS011;5415;59.322;18.246;2023-02-02T06:06:28;2.47;;;1.90;;
10727;SDS011;5415;59.322;18.246;2023-02-02T06:08:55;1.73;;;1.50;;
10727;SDS011;5415;59.322;18.246;2023-02-02T06:11:23;2.93;;;1.53;;
10727;SDS011;5415;59.322;18.246;2023-02-02T06:13:52;2.00;;;1.40;;
10727;SDS011;5415;59.322;18.246;2023-02-02T06:16:19;1.90;;;1.43;;
10727;SDS011;5415;59.322;18.246;2023-02-02T06:18:47;3.00;;;1.50;;
10727;SDS011;5415;59.322;18.246;2023-02-02T06:21:15;2.10;;;1.50;;
10727;SDS011;5415;59.322;18.246;2023-02-02T06:23:43;2.70;;;1.47;;
10727;SDS011;5415;59.322;18.246;2023-02-02T06:26:11;2.20;;;1.30;;
10727;SDS011;5415;59.322;18.246;2023-02-02T06:28:39;2.83;;;1.50;;
10727;SDS011;5415;59.322;18.246;2023-02-02T06:31:09;2.70;;;1.60;;
10727;SDS011;5415;59.322;18.246;2023-02-02T06:33:36;4.03;;;1.10;;
10727;SDS011;5415;59.322;18.246;2023-02-02T06:36:05;1.37;;;1.27;;
10727;SDS011;5415;59.322;18.246;2023-02-02T06:38:32;2.90;;;1.50;;
10727;SDS011;5415;59.322;18.246;2023-02-02T06:41:00;2.90;;;1.53;;
10727;SDS011;5415;59.322;18.246;2023-02-02T06:43:29;2.63;;;1.40;;
10727;SDS011;5415;59.322;18.246;2023-02-02T06:45:56;1.20;;;1.10;;
10727;SDS011;5415;59.322;18.246;2023-02-02T06:48:25;2.20;;;1.40;;
10727;SDS011;5415;59.322;18.246;2023-02-02T06:50:56;1.23;;;1.10;;
10727;SDS011;5415;59.322;18.246;2023-02-02T06:53:23;2.80;;;1.30;;
10727;SDS011;5415;59.322;18.246;2023-02-02T06:55:51;1.77;;;1.30;;
10727;SDS011;5415;59.322;18.246;2023-02-02T06:58:19;1.83;;;1.40;;
10727;SDS011;5415;59.322;18.246;2023-02-02T07:00:47;1.23;;;1.13;;
10727;SDS011;5415;59.322;18.246;2023-02-02T07:03:14;2.53;;;1.40;;
10727;SDS011;5415;59.322;18.246;2023-02-02T07:05:43;1.47;;;1.30;;
10727;SDS011;5415;59.322;18.246;2023-02-02T07:08:11;3.27;;;1.63;;
10727;SDS011;5415;59.322;18.246;2023-02-02T07:10:39;4.27;;;1.30;;
10727;SDS011;5415;59.322;18.246;2023-02-02T07:13:07;2.20;;;1.47;;
10727;SDS011;5415;59.322;18.246;2023-02-02T07:15:34;1.53;;;1.43;;
10727;SDS011;5415;59.322;18.246;2023-02-02T07:18:02;1.98;;;1.40;;
10727;SDS011;5415;59.322;18.246;2023-02-02T07:20:29;1.70;;;1.60;;
10727;SDS011;5415;59.322;18.246;2023-02-02T07:22:58;1.67;;;1.33;;
10727;SDS011;5415;59.322;18.246;2023-02-02T07:25:27;2.10;;;1.40;;
10727;SDS011;5415;59.322;18.246;2023-02-02T07:27:55;1.67;;;1.37;;
10727;SDS011;5415;59.322;18.246;2023-02-02T07:30:23;2.07;;;1.30;;
10727;SDS011;5415;59.322;18.246;2023-02-02T07:32:53;2.77;;;1.57;;
10727;SDS011;5415;59.322;18.246;2023-02-02T07:35:21;2.87;;;1.50;;
10727;SDS011;5415;59.322;18.246;2023-02-02T07:37:50;1.53;;;1.23;;
10727;SDS011;5415;59.322;18.246;2023-02-02T07:40:20;1.67;;;1.30;;
10727;SDS011;5415;59.322;18.246;2023-02-02T07:42:48;2.47;;;1.20;;
10727;SDS011;5415;59.322;18.246;2023-02-02T07:45:16;1.00;;;0.90;;
10727;SDS011;5415;59.322;18.246;2023-02-02T07:47:43;1.43;;;1.10;;
10727;SDS011;5415;59.322;18.246;2023-02-02T07:50:11;1.30;;;1.20;;
10727;SDS011;5415;59.322;18.246;2023-02-02T07:52:38;2.40;;;1.07;;
10727;SDS011;5415;59.322;18.246;2023-02-02T07:55:06;1.43;;;1.33;;
10727;SDS011;5415;59.322;18.246;2023-02-02T07:57:38;2.47;;;1.30;;
10727;SDS011;5415;59.322;18.246;2023-02-02T08:00:06;1.67;;;1.17;;
10727;SDS011;5415;59.322;18.246;2023-02-02T08:02:34;1.27;;;1.10;;
10727;SDS011;5415;59.322;18.246;2023-02-02T08:05:02;1.80;;;1.10;;
10727;SDS011;5415;59.322;18.246;2023-02-02T08:07:32;1.60;;;1.27;;
10727;SDS011;5415;59.322;18.246;2023-02-02T08:10:01;2.23;;;1.40;;
10727;SDS011;5415;59.322;18.246;2023-02-02T08:12:28;2.07;;;1.30;;
10727;SDS011;5415;59.322;18.246;2023-02-02T08:14:58;1.70;;;1.00;;
10727;SDS011;5415;59.322;18.246;2023-02-02T08:17:26;2.27;;;1.10;;
10727;SDS011;5415;59.322;18.246;2023-02-02T08:19:53;1.83;;;1.20;;
10727;SDS011;5415;59.322;18.246;2023-02-02T08:22:21;1.83;;;1.23;;
10727;SDS011;5415;59.322;18.246;2023-02-02T08:24:49;1.93;;;1.30;;
10727;SDS011;5415;59.322;18.246;2023-02-02T08:27:17;1.93;;;1.60;;
10727;SDS011;5415;59.322;18.246;2023-02-02T08:29:45;2.47;;;1.60;;
10727;SDS011;5415;59.322;18.246;2023-02-02T08:32:14;4.67;;;1.50;;
10727;SDS011;5415;59.322;18.246;2023-02-02T08:34:41;2.07;;;1.70;;
10727;SDS011;5415;59.322;18.246;2023-02-02T08:37:09;2.53;;;1.40;;
10727;SDS011;5415;59.322;18.246;2023-02-02T08:39:37;1.83;;;1.40;;
10727;SDS011;5415;59.322;18.246;2023-02-02T08:42:04;3.13;;;1.40;;
10727;SDS011;5415;59.322;18.246;2023-02-02T08:44:32;3.27;;;1.30;;
10727;SDS011;5415;59.322;18.246;2023-02-02T08:47:00;1.30;;;1.17;;
10727;SDS011;5415;59.322;18.246;2023-02-02T08:49:28;1.83;;;1.17;;
10727;SDS011;5415;59.322;18.246;2023-02-02T08:51:57;1.27;;;1.17;;
10727;SDS011;5415;59.322;18.246;2023-02-02T08:54:24;2.23;;;1.50;;
10727;SDS011;5415;59.322;18.246;2023-02-02T08:56:52;1.57;;;1.47;;
10727;SDS011;5415;59.322;18.246;2023-02-02T08:59:19;1.80;;;1.10;;
10727;SDS011;5415;59.322;18.246;2023-02-02T09:01:46;3.97;;;1.37;;
10727;SDS011;5415;59.322;18.246;2023-02-02T09:04:14;1.63;;;1.30;;
10727;SDS011;5415;59.322;18.246;2023-02-02T09:06:43;1.70;;;1.20;;
10727;SDS011;5415;59.322;18.246;2023-02-02T09:09:12;2.00;;;1.23;;
10727;SDS011;5415;59.322;18.246;2023-02-02T09:11:39;1.83;;;1.57;;
10727;SDS011;5415;59.322;18.246;2023-02-02T09:14:09;1.60;;;1.00;;
10727;SDS011;5415;59.322;18.246;2023-02-02T09:16:36;1.40;;;1.17;;
10727;SDS011;5415;59.322;18.246;2023-02-02T09:19:06;2.47;;;1.50;;
10727;SDS011;5415;59.322;18.246;2023-02-02T09:21:35;2.00;;;1.20;;
10727;SDS011;5415;59.322;18.246;2023-02-02T09:26:46;1.50;;;1.20;;
10727;SDS011;5415;59.322;18.246;2023-02-02T09:29:15;3.03;;;1.60;;
10727;SDS011;5415;59.322;18.246;2023-02-02T09:31:43;2.80;;;1.80;;
10727;SDS011;5415;59.322;18.246;2023-02-02T09:34:12;2.47;;;1.80;;
10727;SDS011;5415;59.322;18.246;2023-02-02T09:36:41;1.93;;;1.53;;
10727;SDS011;5415;59.322;18.246;2023-02-02T09:39:09;2.60;;;1.40;;
10727;SDS011;5415;59.322;18.246;2023-02-02T09:41:43;4.10;;;1.37;;
10727;SDS011;5415;59.322;18.246;2023-02-02T09:44:22;3.17;;;1.20;;
10727;SDS011;5415;59.322;18.246;2023-02-02T09:46:55;2.60;;;1.57;;
10727;SDS011;5415;59.322;18.246;2023-02-02T09:49:27;2.00;;;1.40;;
10727;SDS011;5415;59.322;18.246;2023-02-02T09:52:01;1.40;;;1.30;;
10727;SDS011;5415;59.322;18.246;2023-02-02T09:54:31;3.20;;;1.53;;
10727;SDS011;5415;59.322;18.246;2023-02-02T09:57:03;2.77;;;1.50;;
10727;SDS011;5415;59.322;18.246;2023-02-02T09:59:38;2.80;;;1.60;;
10727;SDS011;5415;59.322;18.246;2023-02-02T10:02:20;1.60;;;1.23;;
10727;SDS011;5415;59.322;18.246;2023-02-02T10:04:50;2.23;;;1.10;;
10727;SDS011;5415;59.322;18.246;2023-02-02T10:07:19;2.50;;;1.37;;
10727;SDS011;5415;59.322;18.246;2023-02-02T10:09:48;3.63;;;1.30;;
10727;SDS011;5415;59.322;18.246;2023-02-02T10:12:33;2.27;;;1.50;;
10727;SDS011;5415;59.322;18.246;2023-02-02T10:15:07;1.20;;;1.10;;
10727;SDS011;5415;59.322;18.246;2023-02-02T10:17:40;1.80;;;1.40;;
10727;SDS011;5415;59.322;18.246;2023-02-02T10:20:14;2.20;;;1.50;;
10727;SDS011;5415;59.322;18.246;2023-02-02T10:22:43;1.60;;;1.40;;
10727;SDS011;5415;59.322;18.246;2023-02-02T10:25:12;1.30;;;1.20;;
10727;SDS011;5415;59.322;18.246;2023-02-02T10:27:40;3.30;;;1.40;;
10727;SDS011;5415;59.322;18.246;2023-02-02T10:30:14;2.10;;;1.30;;
10727;SDS011;5415;59.322;18.246;2023-02-02T10:32:46;1.87;;;1.30;;
10727;SDS011;5415;59.322;18.246;2023-02-02T10:35:26;1.30;;;1.20;;
10727;SDS011;5415;59.322;18.246;2023-02-02T10:37:57;2.20;;;1.40;;
10727;SDS011;5415;59.322;18.246;2023-02-02T10:40:32;2.63;;;1.37;;
10727;SDS011;5415;59.322;18.246;2023-02-02T10:43:11;2.27;;;1.27;;
10727;SDS011;5415;59.322;18.246;2023-02-02T10:46:00;2.33;;;1.40;;
10727;SDS011;5415;59.322;18.246;2023-02-02T10:48:28;1.93;;;1.40;;
10727;SDS011;5415;59.322;18.246;2023-02-02T10:51:00;2.10;;;1.80;;
10727;SDS011;5415;59.322;18.246;2023-02-02T10:53:28;2.80;;;1.77;;
10727;SDS011;5415;59.322;18.246;2023-02-02T10:55:57;2.10;;;1.60;;
10727;SDS011;5415;59.322;18.246;2023-02-02T10:58:27;1.57;;;1.43;;
10727;SDS011;5415;59.322;18.246;2023-02-02T11:00:56;1.33;;;1.20;;
10727;SDS011;5415;59.322;18.246;2023-02-02T11:03:27;2.23;;;1.60;;
10727;SDS011;5415;59.322;18.246;2023-02-02T11:05:55;1.67;;;1.47;;
10727;SDS011;5415;59.322;18.246;2023-02-02T11:08:42;1.67;;;1.20;;
10727;SDS011;5415;59.322;18.246;2023-02-02T11:11:16;2.37;;;1.30;;
10727;SDS011;5415;59.322;18.246;2023-02-02T11:13:46;1.87;;;1.20;;
10727;SDS011;5415;59.322;18.246;2023-02-02T11:16:19;1.80;;;1.23;;
10727;SDS011;5415;59.322;18.246;2023-02-02T11:18:49;1.30;;;1.20;;
10727;SDS011;5415;59.322;18.246;2023-02-02T11:21:17;1.60;;;1.50;;
10727;SDS011;5415;59.322;18.246;2023-02-02T11:26:39;1.30;;;1.20;;
10727;SDS011;5415;59.322;18.246;2023-02-02T11:29:11;1.20;;;1.10;;
10727;SDS011;5415;59.322;18.246;2023-02-02T11:31:39;1.30;;;1.20;;
10727;SDS011;5415;59.322;18.246;2023-02-02T11:34:09;1.37;;;1.27;;
10727;SDS011;5415;59.322;18.246;2023-02-02T11:36:56;1.20;;;1.10;;
10727;SDS011;5415;59.322;18.246;2023-02-02T11:39:24;1.20;;;1.13;;
10727;SDS011;5415;59.322;18.246;2023-02-02T11:41:57;1.67;;;1.20;;
10727;SDS011;5415;59.322;18.246;2023-02-02T11:44:25;1.30;;;1.20;;
10727;SDS011;5415;59.322;18.246;2023-02-02T11:46:52;2.33;;;1.40;;
10727;SDS011;5415;59.322;18.246;2023-02-02T11:49:22;1.37;;;1.27;;
10727;SDS011;5415;59.322;18.246;2023-02-02T11:51:57;1.30;;;1.17;;
10727;SDS011;5415;59.322;18.246;2023-02-02T11:54:26;1.23;;;1.17;;
10727;SDS011;5415;59.322;18.246;2023-02-02T11:56:55;1.40;;;1.20;;
10727;SDS011;5415;59.322;18.246;2023-02-02T11:59:29;1.93;;;1.50;;
10727;SDS011;5415;59.322;18.246;2023-02-02T12:02:09;1.90;;;1.30;;
10727;SDS011;5415;59.322;18.246;2023-02-02T12:04:47;1.60;;;1.23;;
10727;SDS011;5415;59.322;18.246;2023-02-02T12:07:21;1.53;;;1.17;;
10727;SDS011;5415;59.322;18.246;2023-02-02T12:09:51;1.57;;;1.37;;
10727;SDS011;5415;59.322;18.246;2023-02-02T12:12:23;1.30;;;1.20;;
10727;SDS011;5415;59.322;18.246;2023-02-02T12:14:53;1.90;;;1.50;;
10727;SDS011;5415;59.322;18.246;2023-02-02T12:17:28;2.40;;;1.43;;
10727;SDS011;5415;59.322;18.246;2023-02-02T12:20:11;1.77;;;1.23;;
10727;SDS011;5415;59.322;18.246;2023-02-02T12:22:46;1.30;;;1.10;;
10727;SDS011;5415;59.322;18.246;2023-02-02T12:25:26;2.10;;;1.40;;
10727;SDS011;5415;59.322;18.246;2023-02-02T12:28:00;2.10;;;1.30;;
10727;SDS011;5415;59.322;18.246;2023-02-02T12:30:34;2.37;;;0.90;;
10727;SDS011;5415;59.322;18.246;2023-02-02T12:33:09;1.30;;;1.20;;
10727;SDS011;5415;59.322;18.246;2023-02-02T12:35:45;1.63;;;1.30;;
10727;SDS011;5415;59.322;18.246;2023-02-02T12:38:15;1.10;;;1.10;;
10727;SDS011;5415;59.322;18.246;2023-02-02T12:40:50;1.93;;;1.23;;
10727;SDS011;5415;59.322;18.246;2023-02-02T12:43:23;1.40;;;1.30;;
10727;SDS011;5415;59.322;18.246;2023-02-02T12:45:56;1.23;;;1.13;;
10727;SDS011;5415;59.322;18.246;2023-02-02T12:48:30;2.43;;;1.03;;
10727;SDS011;5415;59.322;18.246;2023-02-02T12:51:05;1.10;;;1.00;;
10727;SDS011;5415;59.322;18.246;2023-02-02T12:53:38;1.93;;;1.10;;
10727;SDS011;5415;59.322;18.246;2023-02-02T12:56:10;1.10;;;1.00;;
10727;SDS011;5415;59.322;18.246;2023-02-02T12:58:38;1.83;;;1.20;;
10727;SDS011;5415;59.322;18.246;2023-02-02T13:03:56;1.30;;;1.10;;
10727;SDS011;5415;59.322;18.246;2023-02-02T13:09:14;1.13;;;1.00;;
10727;SDS011;5415;59.322;18.246;2023-02-02T13:11:44;1.20;;;1.10;;
10727;SDS011;5415;59.322;18.246;2023-02-02T13:14:14;1.13;;;1.03;;
10727;SDS011;5415;59.322;18.246;2023-02-02T13:16:43;2.03;;;1.10;;
10727;SDS011;5415;59.322;18.246;2023-02-02T13:19:14;1.13;;;1.00;;
10727;SDS011;5415;59.322;18.246;2023-02-02T13:21:45;1.13;;;1.07;;
10727;SDS011;5415;59.322;18.246;2023-02-02T13:24:18;1.20;;;1.07;;
10727;SDS011;5415;59.322;18.246;2023-02-02T13:26:49;1.50;;;1.00;;
10727;SDS011;5415;59.322;18.246;2023-02-02T13:29:18;1.37;;;1.00;;
10727;SDS011;5415;59.322;18.246;2023-02-02T13:31:49;1.57;;;1.07;;
10727;SDS011;5415;59.322;18.246;2023-02-02T13:34:19;1.53;;;1.00;;
10727;SDS011;5415;59.322;18.246;2023-02-02T13:36:49;1.30;;;1.20;;
10727;SDS011;5415;59.322;18.246;2023-02-02T13:39:19;2.67;;;1.50;;
10727;SDS011;5415;59.322;18.246;2023-02-02T13:41:48;1.10;;;1.00;;
10727;SDS011;5415;59.322;18.246;2023-02-02T13:44:20;1.70;;;1.23;;
10727;SDS011;5415;59.322;18.246;2023-02-02T13:46:51;1.83;;;1.30;;
10727;SDS011;5415;59.322;18.246;2023-02-02T13:49:23;1.97;;;1.30;;
10727;SDS011;5415;59.322;18.246;2023-02-02T13:51:54;2.57;;;1.20;;
10727;SDS011;5415;59.322;18.246;2023-02-02T14:00:14;1.67;;;1.30;;
10727;SDS011;5415;59.322;18.246;2023-02-02T14:02:43;2.25;;;1.30;;
10727;SDS011;5415;59.322;18.246;2023-02-02T14:05:19;2.67;;;1.50;;
10727;SDS011;5415;59.322;18.246;2023-02-02T14:07:47;1.93;;;1.50;;
10727;SDS011;5415;59.322;18.246;2023-02-02T14:10:20;1.50;;;1.40;;
10727;SDS011;5415;59.322;18.246;2023-02-02T14:12:48;3.87;;;1.50;;
10727;SDS011;5415;59.322;18.246;2023-02-02T14:15:18;1.57;;;1.37;;
10727;SDS011;5415;59.322;18.246;2023-02-02T14:17:50;1.80;;;1.40;;
10727;SDS011;5415;59.322;18.246;2023-02-02T14:25:51;1.50;;;1.23;;
10727;SDS011;5415;59.322;18.246;2023-02-02T14:28:40;1.30;;;1.20;;
10727;SDS011;5415;59.322;18.246;2023-02-02T14:34:23;2.20;;;1.30;;
10727;SDS011;5415;59.322;18.246;2023-02-02T14:36:57;1.63;;;1.20;;
10727;SDS011;5415;59.322;18.246;2023-02-02T14:39:30;2.07;;;1.30;;
10727;SDS011;5415;59.322;18.246;2023-02-02T14:47:47;1.37;;;1.27;;
10727;SDS011;5415;59.322;18.246;2023-02-02T14:50:19;3.77;;;1.60;;
10727;SDS011;5415;59.322;18.246;2023-02-02T14:52:55;4.40;;;1.80;;
10727;SDS011;5415;59.322;18.246;2023-02-02T14:55:24;2.03;;;1.50;;
10727;SDS011;5415;59.322;18.246;2023-02-02T14:57:52;1.90;;;1.50;;
10727;SDS011;5415;59.322;18.246;2023-02-02T15:00:20;3.30;;;1.40;;
10727;SDS011;5415;59.322;18.246;2023-02-02T15:02:50;2.20;;;1.23;;
10727;SDS011;5415;59.322;18.246;2023-02-02T15:05:43;2.63;;;1.33;;
10727;SDS011;5415;59.322;18.246;2023-02-02T15:08:14;2.27;;;1.30;;
10727;SDS011;5415;59.322;18.246;2023-02-02T15:13:56;2.67;;;1.23;;
10727;SDS011;5415;59.322;18.246;2023-02-02T15:16:31;1.00;;;1.00;;
10727;SDS011;5415;59.322;18.246;2023-02-02T15:19:03;1.33;;;1.20;;
10727;SDS011;5415;59.322;18.246;2023-02-02T15:21:34;2.20;;;1.40;;
10727;SDS011;5415;59.322;18.246;2023-02-02T15:24:04;3.37;;;1.30;;
10727;SDS011;5415;59.322;18.246;2023-02-02T15:26:33;3.30;;;1.20;;
10727;SDS011;5415;59.322;18.246;2023-02-02T15:29:05;3.50;;;2.00;;
10727;SDS011;5415;59.322;18.246;2023-02-02T15:31:35;1.50;;;1.40;;
10727;SDS011;5415;59.322;18.246;2023-02-02T15:34:08;3.60;;;1.50;;
10727;SDS011;5415;59.322;18.246;2023-02-02T15:36:41;2.07;;;1.20;;
10727;SDS011;5415;59.322;18.246;2023-02-02T15:39:12;2.07;;;1.37;;
10727;SDS011;5415;59.322;18.246;2023-02-02T15:41:45;1.87;;;1.30;;
10727;SDS011;5415;59.322;18.246;2023-02-02T15:44:17;2.77;;;1.17;;
10727;SDS011;5415;59.322;18.246;2023-02-02T15:46:45;0.97;;;0.80;;
10727;SDS011;5415;59.322;18.246;2023-02-02T15:49:13;1.20;;;1.10;;
10727;SDS011;5415;59.322;18.246;2023-02-02T15:51:44;1.53;;;1.20;;